createdAt,value
2022-12-31T00:04:59.092Z,68.00
2022-12-31T00:10:00.678Z,67.67
2022-12-31T00:15:02.307Z,68.25
2022-12-31T00:20:04.150Z,68.37
2022-12-31T00:25:06.358Z,68.59
2022-12-31T00:30:08.837Z,68.37
2022-12-31T00:35:10.526Z,68.46
2022-12-31T00:40:12.276Z,68.34
2022-12-31T00:45:13.897Z,67.87
2022-12-31T00:50:15.518Z,67.76
2022-12-31T00:55:17.118Z,67.62
2022-12-31T01:00:18.804Z,67.64
2022-12-31T01:05:20.422Z,67.31
2022-12-31T01:10:40.834Z,67.30
2022-12-31T01:15:42.466Z,66.83
2022-12-31T01:20:44.590Z,66.47
2022-12-31T01:25:46.221Z,66.16
2022-12-31T01:30:47.986Z,66.59
2022-12-31T01:35:50.080Z,66.27
2022-12-31T01:40:51.669Z,66.35
2022-12-31T01:45:54.439Z,66.44
2022-12-31T01:50:56.087Z,66.08
2022-12-31T01:56:00.175Z,66.53
2022-12-31T02:01:02.863Z,67.09
2022-12-31T02:06:11.044Z,67.04
2022-12-31T02:11:23.750Z,67.18
2022-12-31T02:16:41.716Z,66.88
2022-12-31T02:22:02.262Z,66.73
2022-12-31T02:27:10.402Z,66.45
2022-12-31T02:32:23.363Z,66.46
2022-12-31T02:37:28.893Z,66.05
2022-12-31T02:42:30.520Z,65.85
2022-12-31T02:47:43.193Z,66.00
2022-12-31T02:52:58.426Z,65.84
2022-12-31T02:58:13.434Z,65.34
2022-12-31T03:03:17.245Z,65.20
2022-12-31T03:08:23.721Z,65.23
2022-12-31T03:13:25.337Z,64.79
2022-12-31T03:18:46.927Z,65.13
2022-12-31T03:24:07.322Z,64.94
2022-12-31T03:29:08.899Z,64.86
2022-12-31T03:34:10.535Z,64.81
2022-12-31T03:39:12.212Z,64.50
2022-12-31T03:44:13.845Z,64.56
2022-12-31T03:49:15.447Z,64.54
2022-12-31T03:54:17.175Z,64.55
2022-12-31T03:59:18.766Z,65.35
2022-12-31T04:04:20.402Z,65.18
2022-12-31T04:09:22.074Z,65.15
2022-12-31T04:14:23.686Z,65.58
2022-12-31T04:19:25.305Z,65.11
2022-12-31T04:24:27.362Z,65.00
2022-12-31T04:29:28.991Z,64.39
2022-12-31T04:34:31.029Z,64.35
2022-12-31T04:39:32.620Z,64.18
2022-12-31T04:44:35.160Z,63.24
2022-12-31T04:49:36.741Z,63.21
2022-12-31T04:54:38.406Z,62.84
2022-12-31T04:59:40.094Z,62.99
2022-12-31T05:04:41.685Z,62.78
2022-12-31T05:09:43.249Z,62.55
2022-12-31T05:14:44.833Z,63.23
2022-12-31T05:19:46.506Z,63.13
2022-12-31T05:24:48.105Z,62.44
2022-12-31T05:29:49.762Z,62.18
2022-12-31T05:34:51.950Z,62.12
2022-12-31T05:39:53.562Z,62.10
2022-12-31T05:44:55.223Z,61.94
2022-12-31T05:49:56.791Z,61.49
2022-12-31T05:54:58.384Z,61.79
2022-12-31T05:59:59.998Z,61.54
2022-12-31T06:05:01.618Z,61.20
2022-12-31T06:10:03.395Z,61.01
2022-12-31T06:15:05.577Z,61.44
2022-12-31T06:20:12.873Z,61.63
2022-12-31T06:25:15.170Z,61.24
2022-12-31T06:30:16.829Z,61.19
2022-12-31T06:35:18.543Z,60.78
2022-12-31T06:40:20.169Z,60.40
2022-12-31T06:45:21.752Z,60.43
2022-12-31T06:50:23.371Z,59.67
2022-12-31T06:55:25.294Z,59.56
2022-12-31T07:00:27.193Z,59.62
2022-12-31T07:05:38.018Z,58.83
2022-12-31T07:11:00.190Z,58.88
2022-12-31T07:16:25.540Z,58.73
2022-12-31T07:21:45.586Z,58.53
2022-12-31T07:27:12.897Z,58.46
2022-12-31T07:32:28.528Z,58.45
2022-12-31T07:37:39.067Z,58.47
2022-12-31T07:42:56.043Z,57.92
2022-12-31T07:48:02.405Z,58.19
2022-12-31T07:53:05.445Z,58.40
2022-12-31T07:58:22.636Z,57.95
2022-12-31T08:04:00.509Z,58.08
2022-12-31T08:09:06.628Z,58.73
2022-12-31T08:14:13.551Z,58.47
2022-12-31T08:19:30.607Z,58.44
2022-12-31T08:24:35.298Z,58.46
2022-12-31T08:30:05.375Z,58.81
2022-12-31T08:35:22.099Z,58.33
2022-12-31T08:40:42.284Z,58.56
2022-12-31T08:45:48.866Z,58.70
2022-12-31T08:50:50.747Z,58.11
2022-12-31T08:56:01.747Z,57.77
2022-12-31T09:01:07.220Z,57.58
2022-12-31T09:06:50.449Z,57.31
2022-12-31T09:11:52.001Z,57.99
2022-12-31T09:16:56.566Z,57.67
2022-12-31T09:21:58.479Z,57.03
2022-12-31T09:27:27.790Z,57.04
2022-12-31T09:32:29.723Z,56.47
2022-12-31T09:37:47.547Z,55.22
2022-12-31T09:43:14.976Z,55.80
2022-12-31T09:48:34.922Z,55.43
2022-12-31T09:53:58.124Z,55.07
2022-12-31T09:59:14.824Z,54.71
2022-12-31T10:04:36.357Z,54.04
2022-12-31T10:09:59.735Z,54.38
2022-12-31T10:15:30.635Z,54.04
2022-12-31T10:20:58.308Z,53.57
2022-12-31T10:26:09.871Z,53.25
2022-12-31T10:31:33.035Z,52.89
2022-12-31T10:37:05.914Z,52.60
2022-12-31T10:42:29.241Z,52.49
2022-12-31T10:47:30.849Z,53.14
2022-12-31T10:53:00.178Z,52.85
2022-12-31T10:58:37.179Z,53.04
2022-12-31T11:04:27.528Z,53.34
2022-12-31T11:10:07.139Z,53.16
2022-12-31T11:15:37.159Z,52.99
2022-12-31T11:20:57.737Z,53.57
2022-12-31T11:26:15.486Z,53.51
2022-12-31T11:31:28.828Z,53.38
2022-12-31T11:36:53.593Z,53.18
2022-12-31T11:42:20.949Z,52.90
2022-12-31T11:53:26.705Z,52.65
2022-12-31T11:58:29.779Z,52.78
2022-12-31T12:03:32.331Z,52.69
2022-12-31T12:08:34.676Z,52.34
2022-12-31T12:13:36.834Z,51.88
2022-12-31T12:18:50.151Z,51.73
2022-12-31T12:24:02.539Z,51.50
2022-12-31T12:29:21.210Z,51.15
2022-12-31T12:34:26.156Z,51.64
2022-12-31T12:39:33.096Z,51.53
2022-12-31T12:44:35.934Z,51.42
2022-12-31T12:49:44.399Z,50.92
2022-12-31T12:55:19.957Z,50.73
2022-12-31T13:00:33.517Z,51.16
2022-12-31T13:06:10.206Z,50.80
2022-12-31T13:11:26.317Z,51.11
2022-12-31T13:16:47.152Z,50.67
2022-12-31T13:22:17.102Z,50.78
2022-12-31T13:27:26.679Z,50.80
2022-12-31T13:32:42.393Z,50.59
2022-12-31T13:37:46.914Z,51.44
2022-12-31T13:43:16.486Z,51.38
2022-12-31T13:48:24.804Z,51.18
2022-12-31T13:53:35.825Z,51.15
2022-12-31T13:58:40.750Z,51.39
2022-12-31T14:04:00.206Z,51.06
2022-12-31T14:09:02.274Z,51.56
2022-12-31T14:14:34.203Z,51.69
2022-12-31T14:19:55.466Z,52.40
2022-12-31T14:24:59.457Z,52.81
2022-12-31T14:30:20.969Z,53.37
2022-12-31T14:35:56.764Z,53.42
2022-12-31T14:41:13.105Z,53.95
2022-12-31T14:46:20.308Z,53.95
2022-12-31T14:51:26.908Z,54.06
2022-12-31T14:56:42.769Z,53.84
2022-12-31T15:01:45.580Z,54.09
2022-12-31T15:06:54.402Z,54.16
2022-12-31T15:12:07.848Z,54.45
2022-12-31T15:17:47.126Z,54.81
2022-12-31T15:22:51.134Z,54.56
2022-12-31T15:27:53.699Z,54.43
2022-12-31T15:32:58.965Z,54.89
2022-12-31T15:38:19.079Z,54.71
2022-12-31T15:43:43.528Z,55.38
2022-12-31T15:48:55.454Z,55.35
2022-12-31T15:54:00.889Z,55.27
2022-12-31T15:59:06.599Z,55.38
2022-12-31T16:04:26.307Z,55.12
2022-12-31T16:09:34.158Z,55.12
2022-12-31T16:14:40.735Z,55.00
2022-12-31T16:19:45.834Z,54.74
2022-12-31T16:25:29.714Z,54.23
2022-12-31T16:30:29.282Z,54.51
2022-12-31T16:35:33.915Z,54.50
2022-12-31T16:40:35.607Z,54.57
2022-12-31T16:45:38.643Z,54.50
2022-12-31T16:50:45.188Z,53.92
2022-12-31T16:56:01.336Z,54.27
2022-12-31T17:01:24.867Z,54.17
2022-12-31T17:06:28.470Z,54.11
2022-12-31T17:12:13.942Z,54.10
2022-12-31T17:17:24.582Z,54.20
2022-12-31T17:22:37.015Z,54.06
2022-12-31T17:27:39.082Z,54.26
2022-12-31T17:32:40.757Z,54.38
2022-12-31T17:37:42.573Z,54.24
2022-12-31T17:42:46.180Z,54.14
2022-12-31T17:47:51.160Z,53.81
2022-12-31T17:52:57.597Z,53.95
2022-12-31T17:58:03.942Z,53.74
2022-12-31T18:03:05.563Z,53.55
2022-12-31T18:08:07.581Z,53.71
2022-12-31T18:13:20.138Z,53.45
2022-12-31T18:18:28.121Z,53.20
2022-12-31T18:23:50.364Z,53.54
2022-12-31T18:28:52.811Z,53.37
2022-12-31T18:33:56.581Z,53.48
2022-12-31T18:38:58.174Z,53.03
2022-12-31T18:43:59.776Z,53.18
2022-12-31T18:49:01.522Z,53.14
2022-12-31T18:54:04.672Z,53.03
2022-12-31T18:59:07.773Z,52.58
2022-12-31T19:04:26.574Z,52.11
2022-12-31T19:09:45.059Z,52.61
2022-12-31T19:14:47.504Z,52.53
2022-12-31T19:19:49.174Z,52.54
2022-12-31T19:24:50.819Z,52.09
2022-12-31T19:29:52.483Z,52.36
2022-12-31T19:34:54.172Z,52.07
2022-12-31T19:39:55.786Z,52.15
2022-12-31T19:44:57.368Z,51.86
2022-12-31T19:49:58.944Z,51.69
2022-12-31T19:55:00.559Z,51.94
2022-12-31T20:00:02.182Z,51.84
2022-12-31T20:05:04.237Z,51.63
2022-12-31T20:10:07.119Z,51.53
2022-12-31T20:15:09.300Z,51.54
2022-12-31T20:20:11.496Z,51.28
2022-12-31T20:25:13.074Z,51.22
2022-12-31T20:30:15.673Z,51.28
2022-12-31T20:35:17.427Z,51.17
2022-12-31T20:40:19.067Z,50.91
2022-12-31T20:45:20.710Z,51.11
2022-12-31T20:50:22.361Z,50.95
2022-12-31T20:55:25.281Z,51.03
2022-12-31T21:00:26.970Z,51.16
2022-12-31T21:05:28.886Z,51.10
2022-12-31T21:10:30.733Z,51.64
2022-12-31T21:15:32.389Z,51.09
2022-12-31T21:20:34.016Z,50.90
2022-12-31T21:25:35.603Z,50.99
2022-12-31T21:30:41.541Z,50.89
2022-12-31T21:35:48.737Z,50.80
2022-12-31T21:40:55.086Z,50.87
2022-12-31T21:46:01.767Z,51.00
2022-12-31T21:51:15.222Z,50.85
2022-12-31T21:56:18.753Z,51.39
2022-12-31T22:01:39.911Z,51.41
2022-12-31T22:06:41.600Z,51.45
2022-12-31T22:11:43.307Z,51.51
2022-12-31T22:16:45.049Z,51.53
2022-12-31T22:21:46.649Z,52.21
2022-12-31T22:26:48.252Z,51.89
2022-12-31T22:31:49.834Z,51.79
2022-12-31T22:36:51.436Z,51.82
2022-12-31T22:41:53.156Z,52.17
2022-12-31T22:46:56.315Z,51.95
2022-12-31T22:52:00.844Z,52.18
2022-12-31T22:57:05.003Z,52.11
2022-12-31T23:02:06.660Z,52.30
2022-12-31T23:07:08.271Z,52.53
2022-12-31T23:12:10.752Z,52.20
2022-12-31T23:17:36.593Z,52.14
2022-12-31T23:22:56.743Z,52.62
2022-12-31T23:27:58.652Z,52.51
2022-12-31T23:33:00.282Z,52.64
2022-12-31T23:38:01.912Z,52.48
2022-12-31T23:43:05.659Z,52.98
2022-12-31T23:48:07.244Z,53.16
2022-12-31T23:53:11.837Z,53.23
2022-12-31T23:58:13.510Z,53.49
